createdAt,value
2023-03-17T00:01:25.465Z,-61656
2023-03-17T00:06:27.161Z,10210.66667
2023-03-17T00:11:28.811Z,1201.14286
2023-03-17T00:16:30.420Z,2622.26087
2023-03-17T00:21:32.236Z,2510.66667
2023-03-17T00:26:33.924Z,2510.66667
2023-03-17T00:31:35.603Z,2510.66667
2023-03-17T00:36:37.272Z,1312.88889
2023-03-17T00:41:38.989Z,2877.33333
2023-03-17T00:46:40.666Z,1201.14286
2023-03-17T00:51:42.427Z,3366.22222
2023-03-17T00:56:44.174Z,3567.52941
2023-03-17T01:01:45.857Z,1128.61538
2023-03-17T01:06:47.632Z,811.60563
2023-03-17T01:11:49.261Z,836.75362
2023-03-17T01:16:50.942Z,1997.33333
2023-03-17T01:21:52.603Z,12264
2023-03-17T01:26:54.176Z,6104
2023-03-17T01:31:55.873Z,1565.05263
2023-03-17T01:36:57.588Z,1704
2023-03-17T01:41:59.279Z,2144
2023-03-17T01:47:00.904Z,10210.66667
2023-03-17T01:52:02.594Z,6788.44444
2023-03-17T01:57:04.239Z,4344
2023-03-17T02:02:05.807Z,4344
2023-03-17T02:07:07.456Z,2313.23077
2023-03-17T02:12:09.131Z,12264
2023-03-17T02:17:10.722Z,12264
2023-03-17T02:22:12.433Z,6788.44444
2023-03-17T02:27:14.060Z,20477.33333
2023-03-17T02:32:15.668Z,7644
2023-03-17T02:37:17.332Z,20477.33333
2023-03-17T02:42:18.937Z,3567.52941
2023-03-17T02:47:20.565Z,1655.11111
2023-03-17T02:52:22.208Z,787.83562
2023-03-17T02:57:23.829Z,2408
2023-03-17T03:02:25.464Z,1755.76471
2023-03-17T03:07:27.200Z,754.52632
2023-03-17T03:12:28.981Z,891.69231
2023-03-17T03:17:30.674Z,1176
2023-03-17T03:22:32.304Z,2877.33333
2023-03-17T03:27:33.909Z,3024
2023-03-17T03:32:35.596Z,8744
2023-03-17T03:37:37.239Z,8744
2023-03-17T03:42:38.876Z,3794
2023-03-17T03:47:40.742Z,5077.33333
2023-03-17T03:52:42.441Z,5544
2023-03-17T03:57:44.125Z,3567.52941
2023-03-17T04:02:45.888Z,3794
2023-03-17T04:07:47.876Z,2510.66667
2023-03-17T04:12:49.504Z,2313.23077
2023-03-17T04:17:51.217Z,1755.76471
2023-03-17T04:22:52.862Z,2510.66667
2023-03-17T04:27:54.472Z,2877.33333
2023-03-17T04:32:56.237Z,2144
2023-03-17T04:37:57.879Z,3794
2023-03-17T04:43:00.486Z,3186.10526
2023-03-17T04:48:03.417Z,2510.66667
2023-03-17T04:53:05.052Z,2144
2023-03-17T04:58:06.691Z,3186.10526
2023-03-17T05:03:23.816Z,1704
2023-03-17T05:08:27.745Z,906.5
2023-03-17T05:13:29.357Z,1254.6383
2023-03-17T05:18:31.028Z,2408
2023-03-17T05:23:32.790Z,799.55556
2023-03-17T05:28:34.460Z,2510.66667
2023-03-17T05:33:36.206Z,1523.48718
2023-03-17T05:38:38.001Z,1608.86486
2023-03-17T05:43:39.716Z,1201.14286
2023-03-17T05:48:41.504Z,1410.66667
2023-03-17T05:53:43.140Z,2313.23077
2023-03-17T05:58:44.802Z,3186.10526
2023-03-17T06:03:46.538Z,2144
2023-03-17T06:08:48.191Z,1704
2023-03-17T06:13:49.883Z,1484
2023-03-17T06:18:51.599Z,1565.05263
2023-03-17T06:23:53.293Z,2877.33333
2023-03-17T06:28:54.923Z,3024
2023-03-17T06:33:56.542Z,3366.22222
2023-03-17T06:38:58.323Z,30744
2023-03-17T06:44:00.048Z,8744
2023-03-17T06:49:01.669Z,6788.44444
2023-03-17T06:54:03.343Z,8744
2023-03-17T06:59:05.046Z,10210.66667
2023-03-17T07:04:06.838Z,15344
2023-03-17T07:09:08.504Z,6788.44444
2023-03-17T07:14:10.105Z,6788.44444
2023-03-17T07:19:12.118Z,8744
2023-03-17T07:24:13.847Z,2408
2023-03-17T07:29:15.498Z,1565.05263
2023-03-17T07:34:17.092Z,3794
2023-03-17T07:39:18.734Z,8744
2023-03-17T07:44:20.307Z,20477.33333
2023-03-17T07:49:38.143Z,20477.33333
2023-03-17T07:54:43.244Z,20477.33333
2023-03-17T07:59:45.063Z,30744
2023-03-17T08:04:46.683Z,30744
2023-03-17T08:09:48.247Z,20477.33333
2023-03-17T08:14:49.875Z,30744
2023-03-17T08:19:51.503Z,30744
2023-03-17T08:24:53.227Z,30744
2023-03-17T08:29:54.933Z,30744
2023-03-17T08:34:56.629Z,20477.33333
2023-03-17T08:39:58.256Z,10210.66667
2023-03-17T08:44:59.901Z,20477.33333
2023-03-17T08:50:01.541Z,30744
2023-03-17T08:55:03.168Z,15344
2023-03-17T09:00:04.766Z,20477.33333
2023-03-17T09:05:06.581Z,30744
2023-03-17T09:10:08.227Z,30744
2023-03-17T09:15:09.810Z,20477.33333
2023-03-17T09:20:11.413Z,15344
2023-03-17T09:25:13.268Z,30744
2023-03-17T09:30:14.943Z,30744
2023-03-17T09:35:16.597Z,20477.33333
2023-03-17T09:40:18.348Z,20477.33333
2023-03-17T09:45:19.966Z,6788.44444
2023-03-17T09:50:21.620Z,4050.66667
2023-03-17T09:55:23.272Z,3186.10526
2023-03-17T10:00:25.009Z,2877.33333
2023-03-17T10:05:26.743Z,6788.44444
2023-03-17T10:10:28.908Z,10210.66667
2023-03-17T10:15:31.329Z,10210.66667
2023-03-17T10:20:33.183Z,15344
2023-03-17T10:25:34.941Z,8744
2023-03-17T10:30:36.680Z,2225.48148
2023-03-17T10:35:38.334Z,2408
2023-03-17T10:40:39.978Z,1755.76471
2023-03-17T10:45:44.135Z,2744
2023-03-17T10:50:49.385Z,3794
2023-03-17T10:55:51.242Z,4344
2023-03-17T11:00:53.058Z,8744
2023-03-17T11:05:54.719Z,8744
2023-03-17T11:10:56.331Z,3366.22222
2023-03-17T11:15:57.984Z,20477.33333
2023-03-17T11:21:00.738Z,12264
2023-03-17T11:26:02.700Z,8744
2023-03-17T11:31:04.323Z,6104
2023-03-17T11:36:06.170Z,7644
2023-03-17T11:41:07.974Z,10210.66667
2023-03-17T11:46:09.674Z,7644
2023-03-17T11:51:11.328Z,1084.74074
2023-03-17T11:56:12.989Z,2744
2023-03-17T12:01:14.596Z,3794
2023-03-17T12:06:21.368Z,3567.52941
2023-03-17T12:11:24.196Z,6788.44444
2023-03-17T12:16:26.012Z,4682.46154
2023-03-17T12:21:27.669Z,2622.26087
2023-03-17T12:26:29.315Z,3567.52941
2023-03-17T12:31:31.074Z,2744
2023-03-17T12:36:32.711Z,2510.66667
2023-03-17T12:41:34.309Z,4682.46154
2023-03-17T12:46:35.944Z,4682.46154
2023-03-17T12:51:38.639Z,3186.10526
2023-03-17T12:56:40.328Z,1869
2023-03-17T13:01:42.007Z,953.83607
2023-03-17T13:06:43.720Z,421.51938
2023-03-17T13:11:45.387Z,374.76923
2023-03-17T13:16:47.041Z,393.63504
2023-03-17T13:21:48.625Z,799.55556
2023-03-17T13:26:50.233Z,644
2023-03-17T13:31:52.183Z,514.37037
2023-03-17T13:36:53.905Z,331.42138
2023-03-17T13:41:56.590Z,298.02299
2023-03-17T13:46:58.344Z,312.86228
2023-03-17T13:52:00.719Z,547.92157
2023-03-17T13:57:02.441Z,436.8
2023-03-17T14:02:04.052Z,448.91803
2023-03-17T14:07:05.787Z,338.87179
2023-03-17T14:12:07.426Z,1227.33333
2023-03-17T14:17:09.233Z,1704
2023-03-17T14:22:10.820Z,849.88235
2023-03-17T14:27:12.417Z,953.83607
2023-03-17T14:32:14.281Z,1176
2023-03-17T14:37:15.892Z,1254.6383
2023-03-17T14:42:17.651Z,425.25
2023-03-17T14:47:19.348Z,377.80282
2023-03-17T14:52:21.033Z,425.25
2023-03-17T14:57:22.658Z,484.35088
2023-03-17T15:02:24.414Z,787.83562
2023-03-17T15:07:26.250Z,2408
2023-03-17T15:12:27.824Z,3186.10526
2023-03-17T15:17:29.581Z,3567.52941
2023-03-17T15:22:31.248Z,2622.26087
2023-03-17T15:27:32.972Z,2068.13793
2023-03-17T15:32:34.668Z,2144
2023-03-17T15:37:36.437Z,2225.48148
2023-03-17T15:42:38.063Z,1931.09677
2023-03-17T15:47:39.666Z,3186.10526
2023-03-17T15:52:41.253Z,7644
2023-03-17T15:57:50.796Z,10210.66667
2023-03-17T16:02:55.641Z,20477.33333
2023-03-17T16:07:57.243Z,30744
2023-03-17T16:12:58.994Z,61544
2023-03-17T16:18:00.689Z,61544
2023-03-17T16:23:02.362Z,61544
2023-03-17T16:28:03.948Z,61544
2023-03-17T16:33:05.674Z,61544
2023-03-17T16:38:07.456Z,61544
2023-03-17T16:43:22.551Z,61544
2023-03-17T16:48:26.527Z,61544
2023-03-17T16:53:28.183Z,61544
2023-03-17T16:58:29.962Z,0
2023-03-17T17:03:31.672Z,61544
2023-03-17T17:08:33.339Z,61544
2023-03-17T17:13:34.954Z,0
2023-03-17T17:18:37.975Z,61544
2023-03-17T17:23:39.788Z,61544
2023-03-17T17:28:41.633Z,61544
2023-03-17T17:33:43.364Z,0
2023-03-17T17:38:45.162Z,0
2023-03-17T17:43:46.890Z,0
2023-03-17T17:48:48.919Z,0
2023-03-17T17:53:50.800Z,0
2023-03-17T17:58:52.514Z,0
2023-03-17T18:03:54.173Z,0
2023-03-17T18:08:55.764Z,0
2023-03-17T18:13:57.392Z,-61656
2023-03-17T18:18:59.065Z,0
2023-03-17T18:24:00.688Z,0
2023-03-17T18:29:02.344Z,-61656
2023-03-17T18:59:58.242Z,-61656
2023-03-17T19:05:02.051Z,-61656
2023-03-17T19:10:05.773Z,-61656
2023-03-17T19:15:09.537Z,-61656
2023-03-17T19:20:13.359Z,0
2023-03-17T19:25:14.916Z,-61656
2023-03-17T19:30:16.560Z,-61656
2023-03-17T19:35:18.156Z,-61656
2023-03-17T19:40:19.814Z,-61656
2023-03-17T19:45:21.524Z,-61656
2023-03-17T19:50:23.126Z,-61656
2023-03-17T19:55:24.917Z,-61656
2023-03-17T20:00:26.595Z,-61656
2023-03-17T20:05:28.250Z,-61656
2023-03-17T20:10:30.143Z,-61656
2023-03-17T20:15:31.972Z,-61656
2023-03-17T20:20:33.804Z,-61656
2023-03-17T20:25:35.523Z,-61656
2023-03-17T20:30:37.126Z,-61656
2023-03-17T20:35:38.788Z,-30856
2023-03-17T20:40:40.415Z,-61656
2023-03-17T20:45:42.038Z,-30856
2023-03-17T20:50:43.671Z,-30856
2023-03-17T20:55:45.356Z,-30856
2023-03-17T21:00:46.971Z,-30856
2023-03-17T21:05:48.574Z,-30856
2023-03-17T21:10:50.220Z,-30856
2023-03-17T21:15:51.926Z,-30856
2023-03-17T21:20:53.604Z,-30856
2023-03-17T21:25:55.216Z,-30856
2023-03-17T21:30:56.872Z,-30856
2023-03-17T21:35:58.535Z,-30856
2023-03-17T21:41:00.177Z,-30856
2023-03-17T21:46:01.922Z,-30856
2023-03-17T21:51:03.615Z,-30856
2023-03-17T21:56:05.217Z,-30856
2023-03-17T22:01:06.883Z,-30856
2023-03-17T22:06:08.506Z,-30856
2023-03-17T22:11:10.111Z,-30856
2023-03-17T22:16:11.869Z,-30856
2023-03-17T22:21:13.562Z,-30856
2023-03-17T22:26:15.314Z,-30856
2023-03-17T22:31:17.098Z,-30856
2023-03-17T22:36:18.784Z,-30856
2023-03-17T22:41:20.483Z,-30856
2023-03-17T22:46:22.240Z,-30856
2023-03-17T22:51:24.215Z,-30856
2023-03-17T22:56:25.816Z,-30856
2023-03-17T23:01:27.605Z,-30856
2023-03-17T23:06:29.355Z,-30856
2023-03-17T23:11:30.948Z,-30856
2023-03-17T23:16:32.686Z,-30856
2023-03-17T23:21:34.320Z,-30856
2023-03-17T23:26:35.981Z,-30856
2023-03-17T23:31:37.587Z,-30856
2023-03-17T23:36:39.186Z,-30856
2023-03-17T23:41:40.788Z,-30856
2023-03-17T23:46:42.356Z,-30856
2023-03-17T23:51:44.026Z,-30856
2023-03-17T23:56:45.663Z,-61656
